Time;durP1;ratioP1;P1;durP2;ratioP2;P2;SDS_P1;SDS_P2;PMS_P1;PMS_P2;Temp;Humidity;BMP_temperature;BMP_pressure;BME280_temperature;BME280_humidity;BME280_pressure;Samples;Min_cycle;Max_cycle;Signal;HPM_P1;HPM_P2
2022/01/10 00:00:26;;;;;;;9.53;8.20;;;;;;;3.49;96.44;99839.47;5069302;28;20189;-81
2022/01/10 00:02:57;;;;;;;10.53;8.83;;;;;;;3.44;96.26;99848.06;5069508;28;20209;-83
2022/01/10 00:05:24;;;;;;;10.67;8.10;;;;;;;3.40;96.75;99847.19;5075131;28;20229;-79
2022/01/10 00:07:50;;;;;;;11.80;8.53;;;;;;;3.34;96.78;99844.63;5073158;28;20247;-82
2022/01/10 00:10:17;;;;;;;13.83;8.13;;;;;;;3.40;97.31;99844.63;5078671;28;20193;-80
2022/01/10 00:12:44;;;;;;;11.27;8.00;;;;;;;3.38;96.92;99842.03;4729148;28;10000369;-82
2022/01/10 00:15:12;;;;;;;14.17;8.97;;;;;;;3.45;97.00;99847.19;5087244;22;20494;-78
2022/01/10 00:17:39;;;;;;;11.40;7.83;;;;;;;3.48;96.51;99860.09;5065365;28;20201;-80
2022/01/10 00:20:12;;;;;;;11.33;8.93;;;;;;;3.46;96.85;99861.81;5063806;28;20204;-79
2022/01/10 00:22:40;;;;;;;8.07;7.37;;;;;;;3.50;96.61;99866.13;5065321;28;20201;-79
2022/01/10 00:25:07;;;;;;;11.97;8.20;;;;;;;3.42;96.81;99873.84;5061587;28;20222;-79
2022/01/10 00:27:34;;;;;;;12.87;8.30;;;;;;;3.35;96.89;99870.41;5060136;28;20194;-77
2022/01/10 00:30:00;;;;;;;11.97;8.50;;;;;;;3.45;96.59;99873.88;5059512;28;20246;-77
2022/01/10 00:32:27;;;;;;;10.60;8.03;;;;;;;3.44;96.36;99879.03;5058546;28;20221;-78
2022/01/10 00:34:54;;;;;;;17.23;8.07;;;;;;;3.38;97.15;99883.31;5060967;28;20205;-80
2022/01/10 00:37:21;;;;;;;14.80;9.00;;;;;;;3.38;96.99;99877.28;5061681;28;20197;-79
2022/01/10 00:39:49;;;;;;;16.50;8.70;;;;;;;3.41;97.26;99892.78;5062915;28;20200;-78
2022/01/10 00:42:16;;;;;;;11.37;8.90;;;;;;;3.34;97.23;99888.47;5062274;28;20201;-78
2022/01/10 00:44:49;;;;;;;14.00;9.03;;;;;;;3.38;97.78;99885.03;5062393;28;20206;-79
2022/01/10 00:47:16;;;;;;;12.10;8.77;;;;;;;3.41;97.62;99879.88;5057119;28;20255;-78
2022/01/10 00:49:42;;;;;;;13.37;9.07;;;;;;;3.37;97.66;99889.34;5061605;28;20186;-80
2022/01/10 00:52:09;;;;;;;13.90;8.37;;;;;;;3.53;97.96;99886.78;5063081;28;20206;-80
2022/01/10 00:54:37;;;;;;;10.30;8.43;;;;;;;3.53;97.48;99895.38;5063209;28;20197;-80
2022/01/10 00:57:04;;;;;;;16.03;9.67;;;;;;;3.48;97.14;99909.13;5064606;28;20228;-79
2022/01/10 00:59:30;;;;;;;12.57;9.33;;;;;;;3.51;97.17;99920.31;5061353;28;20190;-80
2022/01/10 01:01:57;;;;;;;13.77;8.47;;;;;;;3.49;96.62;99922.03;5059123;28;20231;-77
2022/01/10 01:04:23;;;;;;;11.50;8.37;;;;;;;3.50;96.81;99926.31;5056346;28;20271;-78
2022/01/10 01:06:50;;;;;;;11.90;8.70;;;;;;;3.51;96.94;99929.78;5055838;28;20222;-79
2022/01/10 01:09:20;;;;;;;11.50;8.40;;;;;;;3.58;97.07;99929.78;5057808;28;20193;-78
2022/01/10 01:14:53;;;;;;;13.47;9.17;;;;;;;3.56;96.10;99959.88;5052648;28;20203;-78
2022/01/10 01:17:34;;;;;;;9.03;7.77;;;;;;;3.69;96.61;99960.78;5046206;28;20222;-79
2022/01/10 01:20:19;;;;;;;16.53;9.50;;;;;;;3.52;96.70;99970.19;5045143;28;20572;-79
2022/01/10 01:25:30;;;;;;;14.47;8.80;;;;;;;3.47;96.83;99970.19;5052800;28;20716;-79
2022/01/10 01:27:58;;;;;;;14.23;9.30;;;;;;;3.43;97.17;99975.31;5043825;28;20271;-77
2022/01/10 01:30:25;;;;;;;10.90;9.53;;;;;;;3.34;97.39;99966.72;5044297;28;20300;-79
2022/01/10 01:32:51;;;;;;;12.77;8.60;;;;;;;3.37;97.01;99964.16;5044788;28;20243;-80
2022/01/10 01:35:24;;;;;;;15.23;9.47;;;;;;;3.36;97.43;99959.84;5053283;28;20213;-79
2022/01/10 01:37:51;;;;;;;9.90;8.90;;;;;;;3.43;97.22;99965.88;5043227;28;20274;-80
2022/01/10 01:40:19;;;;;;;15.73;9.20;;;;;;;3.42;97.31;99969.31;5041080;28;20198;-78
2022/01/10 01:42:47;;;;;;;11.93;8.40;;;;;;;3.45;97.45;99971.03;5049686;28;20703;-79
2022/01/10 01:45:16;;;;;;;11.90;9.10;;;;;;;3.40;97.44;99988.22;5034303;28;20221;-77
2022/01/10 01:47:44;;;;;;;12.37;9.10;;;;;;;3.45;97.27;99991.66;5046356;28;20232;-79
2022/01/10 01:50:12;;;;;;;14.17;8.97;;;;;;;3.45;97.30;99986.50;5039517;28;20199;-78
2022/01/10 01:52:39;;;;;;;16.53;9.00;;;;;;;3.49;97.25;99998.56;5041045;28;20248;-78
2022/01/10 01:55:07;;;;;;;10.87;7.80;;;;;;;3.61;97.00;100005.47;5047337;28;20222;-80
2022/01/10 01:57:34;;;;;;;17.63;9.13;;;;;;;3.58;97.02;100011.50;5048255;28;20734;-79
2022/01/10 02:00:02;;;;;;;11.40;8.00;;;;;;;3.69;96.91;100025.28;5043294;28;20206;-78
2022/01/10 02:02:30;;;;;;;15.87;8.70;;;;;;;3.63;96.49;100032.13;5044322;28;20201;-78
2022/01/10 02:04:57;;;;;;;10.93;7.93;;;;;;;3.48;96.23;100040.72;5051872;28;20209;-79
2022/01/10 02:07:23;;;;;;;14.27;9.20;;;;;;;3.44;96.71;100028.66;5052546;28;20197;-79
2022/01/10 02:09:51;;;;;;;15.20;9.93;;;;;;;3.57;96.75;100025.28;5035867;28;20249;-79
2022/01/10 02:12:17;;;;;;;14.87;8.60;;;;;;;3.46;96.94;100025.22;5043848;28;20210;-79
2022/01/10 02:14:46;;;;;;;12.37;8.40;;;;;;;3.60;96.98;100024.41;5044340;28;20245;-79
2022/01/10 02:17:13;;;;;;;9.80;8.37;;;;;;;3.63;96.62;100024.41;5046180;28;20268;-78
2022/01/10 02:19:57;;;;;;;11.47;8.77;;;;;;;3.64;96.49;100046.78;5050319;28;20208;-79
2022/01/10 02:22:23;;;;;;;14.17;8.40;;;;;;;3.46;96.68;100047.59;5047109;28;20194;-79
2022/01/10 02:24:50;;;;;;;11.87;8.43;;;;;;;3.45;96.81;100056.16;5049003;28;20219;-80
2022/01/10 02:27:16;;;;;;;10.13;8.23;;;;;;;3.42;96.93;100051.00;5044175;28;20206;-78
2022/01/10 02:29:43;;;;;;;13.30;9.23;;;;;;;3.46;96.41;100057.91;5037115;28;20205;-80
2022/01/10 02:32:09;;;;;;;13.47;8.87;;;;;;;3.49;96.45;100070.81;5042561;28;20202;-79
2022/01/10 02:34:35;;;;;;;14.83;8.07;;;;;;;3.54;95.92;100080.28;5038187;28;20195;-79
2022/01/10 02:37:04;;;;;;;10.67;7.90;;;;;;;3.55;96.06;100094.94;5041672;28;20222;-79
2022/01/10 02:39:30;;;;;;;15.90;8.63;;;;;;;3.57;95.81;100106.13;5046111;28;20202;-78
2022/01/10 02:41:57;;;;;;;9.17;7.07;;;;;;;3.67;95.79;100116.50;5032582;28;20233;-80
2022/01/10 02:44:23;;;;;;;9.17;7.53;;;;;;;3.69;95.34;100130.25;5043556;28;20290;-79
2022/01/10 02:46:50;;;;;;;9.37;7.30;;;;;;;3.71;95.04;100142.31;5062164;28;20227;-79
2022/01/10 02:49:24;;;;;;;10.80;7.53;;;;;;;3.67;94.90;100156.06;5055498;28;20205;-77
2022/01/10 02:51:51;;;;;;;9.30;6.83;;;;;;;3.70;94.81;100156.06;5044224;28;20197;-79
2022/01/10 02:54:19;;;;;;;15.63;10.00;;;;;;;3.62;94.74;100165.50;5057724;28;20247;-78
2022/01/10 02:56:46;;;;;;;10.63;8.80;;;;;;;3.58;95.25;100156.88;5051336;28;20638;-78
2022/01/10 02:59:12;;;;;;;12.40;9.37;;;;;;;3.48;95.63;100154.25;5054265;28;20201;-80
2022/01/10 03:01:39;;;;;;;9.43;7.50;;;;;;;3.54;95.75;100147.38;5043778;28;20197;-80
2022/01/10 03:04:07;;;;;;;12.67;10.10;;;;;;;3.36;96.51;100135.25;5048531;28;20641;-79
2022/01/10 03:06:33;;;;;;;15.53;10.47;;;;;;;3.37;96.46;100131.84;5051112;28;20217;-79
2022/01/10 03:09:04;;;;;;;15.93;10.63;;;;;;;3.38;96.54;100136.13;5050271;28;20201;-80
2022/01/10 03:11:32;;;;;;;16.30;10.73;;;;;;;3.46;96.67;100132.72;5042013;28;20208;-80
2022/01/10 03:13:59;;;;;;;12.30;9.00;;;;;;;3.54;96.50;100138.78;5068892;28;20228;-79
2022/01/10 03:16:27;;;;;;;21.23;10.03;;;;;;;3.57;96.55;100150.00;5071259;28;20225;-80
2022/01/10 03:18:54;;;;;;;18.97;11.43;;;;;;;3.50;96.16;100168.00;5063212;28;20209;-77
2022/01/10 03:21:20;;;;;;;12.53;10.43;;;;;;;3.38;96.80;100158.50;5047950;28;20254;-79
2022/01/10 03:23:47;;;;;;;16.37;11.17;;;;;;;3.32;97.09;100148.13;5047044;28;20703;-78
2022/01/10 03:26:13;;;;;;;14.63;10.53;;;;;;;3.41;97.27;100144.72;5054551;28;20222;-78
2022/01/10 03:28:41;;;;;;;24.47;11.03;;;;;;;3.41;97.02;100153.34;5047254;28;20252;-78
2022/01/10 03:31:08;;;;;;;15.77;10.97;;;;;;;3.41;97.02;100155.94;5037322;28;20205;-78
2022/01/10 03:33:34;;;;;;;15.07;11.53;;;;;;;3.34;97.13;100160.19;5046552;28;20244;-79
2022/01/10 03:36:01;;;;;;;23.97;12.40;;;;;;;3.25;97.66;100146.34;5046828;28;20275;-79
2022/01/10 03:38:27;;;;;;;17.57;10.63;;;;;;;3.21;98.29;100142.94;5040716;28;20205;-79
2022/01/10 03:40:53;;;;;;;18.90;12.20;;;;;;;3.23;97.95;100137.75;5049600;28;20205;-80
2022/01/10 03:43:20;;;;;;;14.57;11.43;;;;;;;3.18;97.97;100142.91;5049369;28;20652;-79
2022/01/10 03:45:48;;;;;;;17.23;12.57;;;;;;;3.17;98.27;100141.16;5045782;28;20646;-79
2022/01/10 03:48:14;;;;;;;18.03;11.97;;;;;;;3.22;98.29;100143.78;5056166;28;20197;-78
2022/01/10 03:50:41;;;;;;;16.13;11.47;;;;;;;3.15;98.62;100151.47;5069751;28;20224;-79
2022/01/10 03:53:07;;;;;;;20.90;13.97;;;;;;;3.15;98.84;100145.44;5051029;28;20625;-79
2022/01/10 03:55:35;;;;;;;16.77;11.83;;;;;;;3.20;98.82;100151.50;5058027;28;20213;-80
2022/01/10 03:58:02;;;;;;;22.93;11.87;;;;;;;3.22;98.43;100160.09;5055328;28;20697;-78
2022/01/10 04:00:28;;;;;;;15.83;11.50;;;;;;;3.33;98.34;100157.59;5054274;28;20248;-78
2022/01/10 04:03:01;;;;;;;13.63;10.27;;;;;;;3.43;98.12;100177.44;5055177;28;20203;-77
2022/01/10 04:05:27;;;;;;;16.70;10.33;;;;;;;3.50;98.02;100180.91;5054707;28;20240;-79
2022/01/10 04:07:53;;;;;;;17.23;11.63;;;;;;;3.52;97.61;100205.88;5041817;28;20676;-80
2022/01/10 04:10:20;;;;;;;15.50;11.40;;;;;;;3.55;97.08;100212.78;5035489;28;20252;-79
2022/01/10 04:12:46;;;;;;;22.97;11.20;;;;;;;3.51;97.24;100231.69;5055078;28;20205;-78
2022/01/10 04:15:13;;;;;;;16.43;10.33;;;;;;;3.48;96.97;100232.50;5040228;28;20217;-80
2022/01/10 04:17:39;;;;;;;12.23;10.97;;;;;;;3.58;96.70;100233.44;5045979;28;20256;-79
2022/01/10 04:20:08;;;;;;;19.40;11.60;;;;;;;3.49;96.51;100246.25;5044859;28;20206;-79
2022/01/10 04:22:35;;;;;;;20.13;12.43;;;;;;;3.27;97.00;100247.81;5053268;28;20255;-79
2022/01/10 04:25:01;;;;;;;20.17;12.77;;;;;;;3.21;97.53;100245.22;5048151;28;20218;-79
2022/01/10 04:27:31;;;;;;;21.73;12.30;;;;;;;3.17;98.23;100236.56;5050446;28;20668;-78
2022/01/10 04:29:58;;;;;;;21.20;12.50;;;;;;;3.15;98.38;100231.44;5042323;28;20194;-79
2022/01/10 04:32:26;;;;;;;17.30;12.57;;;;;;;3.14;98.40;100229.69;5049868;28;20672;-78
2022/01/10 04:34:53;;;;;;;20.50;11.80;;;;;;;3.18;98.79;100230.56;5046599;28;20286;-77
2022/01/10 04:37:20;;;;;;;18.47;11.30;;;;;;;3.15;98.74;100228.84;5054162;28;20212;-78
2022/01/10 04:39:47;;;;;;;19.83;12.20;;;;;;;3.12;99.08;100225.38;5034076;28;20203;-80
2022/01/10 04:42:13;;;;;;;21.07;12.17;;;;;;;3.15;99.29;100225.38;5041050;28;20255;-79
2022/01/10 04:44:40;;;;;;;19.00;11.83;;;;;;;3.14;99.15;100227.09;5045340;28;20222;-78
2022/01/10 04:47:06;;;;;;;24.13;12.90;;;;;;;3.15;99.03;100233.13;5043224;28;20232;-79
2022/01/10 04:49:50;;;;;;;14.30;11.00;;;;;;;3.16;99.33;100227.97;5045253;28;20611;-78
2022/01/10 04:52:19;;;;;;;21.27;11.60;;;;;;;3.16;99.19;100234.88;5034162;28;20217;-79
2022/01/10 04:54:47;;;;;;;16.60;12.03;;;;;;;3.20;99.48;100240.91;5042148;28;20193;-79
2022/01/10 04:57:13;;;;;;;13.97;11.63;;;;;;;3.22;99.12;100257.25;5048059;28;20864;-78
2022/01/10 04:59:39;;;;;;;15.97;10.43;;;;;;;3.19;99.06;100258.09;5043489;28;20265;-80
2022/01/10 05:02:07;;;;;;;15.33;11.30;;;;;;;3.21;99.40;100259.00;5033639;28;20740;-79
2022/01/10 05:04:33;;;;;;;11.27;10.00;;;;;;;3.28;99.11;100262.47;5049615;28;20232;-78
2022/01/10 05:07:00;;;;;;;14.07;10.30;;;;;;;3.30;99.29;100264.19;5045489;28;20225;-79
2022/01/10 05:09:29;;;;;;;16.67;11.23;;;;;;;3.30;99.27;100271.94;5045425;28;20199;-79
2022/01/10 05:11:58;;;;;;;16.90;10.03;;;;;;;3.43;99.15;100282.34;5044634;28;20201;-78
2022/01/10 05:14:24;;;;;;;13.67;10.87;;;;;;;3.50;98.53;100297.88;5044744;28;20209;-78
2022/01/10 05:16:51;;;;;;;15.77;9.60;;;;;;;3.51;98.44;100306.53;5040757;28;20290;-79
2022/01/10 05:19:18;;;;;;;18.90;10.60;;;;;;;3.57;98.49;100325.47;5043842;28;20673;-77
2022/01/10 05:21:44;;;;;;;18.00;10.60;;;;;;;3.46;97.64;100334.00;5033249;28;20240;-77
2022/01/10 05:24:11;;;;;;;14.50;10.17;;;;;;;3.44;97.31;100348.59;5038325;28;20272;-78
2022/01/10 05:26:37;;;;;;;16.53;10.20;;;;;;;3.46;97.31;100354.63;5044407;28;20222;-78
2022/01/10 05:29:05;;;;;;;22.17;10.87;;;;;;;3.40;97.22;100360.59;5041844;28;20202;-78
2022/01/10 05:31:33;;;;;;;12.37;11.07;;;;;;;3.36;97.31;100367.44;5047742;28;20243;-77
2022/01/10 05:34:00;;;;;;;16.20;11.03;;;;;;;3.31;97.47;100376.88;5043939;28;20205;-78
2022/01/10 05:36:26;;;;;;;19.03;10.73;;;;;;;3.27;97.49;100371.66;5052736;28;20225;-79
2022/01/10 05:38:53;;;;;;;15.53;10.67;;;;;;;3.32;97.47;100372.56;5051506;28;20628;-79
2022/01/10 05:41:21;;;;;;;16.00;11.00;;;;;;;3.30;98.22;100374.28;5038651;28;20206;-78
2022/01/10 05:43:47;;;;;;;14.07;10.67;;;;;;;3.28;97.93;100378.53;5042211;28;20204;-78
2022/01/10 05:46:18;;;;;;;16.10;11.20;;;;;;;3.36;98.06;100388.06;5046567;28;20221;-79
2022/01/10 05:48:47;;;;;;;17.70;12.27;;;;;;;3.31;97.92;100402.66;5049616;28;20201;-78
2022/01/10 05:51:14;;;;;;;17.50;12.43;;;;;;;3.23;97.92;100400.84;5032688;28;20202;-79
2022/01/10 05:53:40;;;;;;;12.47;11.03;;;;;;;3.26;97.77;100413.78;5040264;28;20621;-78
2022/01/10 05:56:06;;;;;;;20.93;11.73;;;;;;;3.25;98.01;100418.09;5035687;28;20699;-78
2022/01/10 05:58:35;;;;;;;17.83;11.83;;;;;;;3.31;97.49;100420.72;5043870;28;20619;-79
2022/01/10 06:01:02;;;;;;;16.73;11.30;;;;;;;3.23;97.71;100426.63;5042743;28;20212;-78
2022/01/10 06:03:29;;;;;;;18.97;12.23;;;;;;;3.18;98.07;100424.00;5043855;28;20234;-77
2022/01/10 06:05:56;;;;;;;21.57;12.00;;;;;;;3.17;98.22;100420.56;5050880;28;20229;-79
2022/01/10 06:08:23;;;;;;;16.53;11.93;;;;;;;3.22;98.04;100424.91;5043096;28;20631;-77
2022/01/10 06:10:49;;;;;;;19.43;12.87;;;;;;;3.21;98.70;100421.47;5035921;28;20210;-80
2022/01/10 06:13:15;;;;;;;17.83;12.93;;;;;;;3.25;98.62;100425.81;5048504;28;20202;-79
2022/01/10 06:15:42;;;;;;;16.40;12.10;;;;;;;3.23;98.21;100434.38;5063971;22;20319;-81
2022/01/10 06:18:08;;;;;;;16.97;12.53;;;;;;;3.20;98.42;100445.53;5095450;28;20212;-79
2022/01/10 06:20:36;;;;;;;20.97;11.40;;;;;;;3.14;98.08;100448.03;5094343;28;20204;-82
2022/01/10 06:23:03;;;;;;;14.27;11.07;;;;;;;3.22;98.59;100459.31;5086880;28;20290;-82
2022/01/10 06:25:29;;;;;;;17.43;11.93;;;;;;;3.18;98.59;100460.97;5088591;28;20246;-82
2022/01/10 06:27:57;;;;;;;16.83;11.50;;;;;;;3.21;98.15;100472.19;5088101;28;20230;-82
2022/01/10 06:30:23;;;;;;;18.53;11.53;;;;;;;3.16;98.05;100487.59;5093186;28;20257;-82
2022/01/10 06:32:50;;;;;;;18.40;10.70;;;;;;;3.08;97.78;100489.22;5084447;28;20687;-82
2022/01/10 06:35:16;;;;;;;14.47;10.87;;;;;;;3.05;98.04;100487.47;5093844;28;20200;-82
2022/01/10 06:37:44;;;;;;;16.10;10.73;;;;;;;3.05;97.80;100494.34;5092282;28;20196;-83
2022/01/10 06:40:12;;;;;;;16.07;11.83;;;;;;;2.94;98.00;100509.69;5083975;28;20699;-82
2022/01/10 06:42:40;;;;;;;21.23;11.13;;;;;;;3.02;97.89;100508.06;5084541;28;20209;-82
2022/01/10 06:45:07;;;;;;;14.73;11.10;;;;;;;2.93;98.29;100518.25;5075777;28;20221;-80
2022/01/10 06:47:33;;;;;;;13.60;10.83;;;;;;;2.92;98.21;100512.22;5093016;28;20662;-82
2022/01/10 06:50:00;;;;;;;16.87;10.60;;;;;;;2.98;98.30;100524.34;5086885;28;20200;-82
2022/01/10 06:52:26;;;;;;;11.77;9.93;;;;;;;3.03;98.66;100532.13;5087126;28;20227;-82
2022/01/10 06:54:54;;;;;;;15.77;10.47;;;;;;;3.05;98.52;100528.72;5095892;28;20204;-82
2022/01/10 06:57:20;;;;;;;17.63;9.80;;;;;;;2.95;98.82;100532.91;5084054;28;20225;-81
2022/01/10 06:59:47;;;;;;;18.77;10.93;;;;;;;3.06;99.27;100527.88;5084357;28;20208;-81
2022/01/10 07:02:13;;;;;;;17.00;11.90;;;;;;;2.98;99.57;100525.22;5083357;28;20201;-81
2022/01/10 07:04:40;;;;;;;21.40;11.50;;;;;;;2.90;99.58;100520.81;5084787;28;20266;-82
2022/01/10 07:07:06;;;;;;;24.07;12.77;;;;;;;2.93;99.96;100506.25;5088067;28;20725;-81
2022/01/10 07:09:33;;;;;;;16.53;12.53;;;;;;;2.93;100.00;100513.09;5089021;28;20196;-82
2022/01/10 07:12:01;;;;;;;16.97;11.47;;;;;;;3.01;100.00;100511.47;5085862;28;20200;-82
2022/01/10 07:14:29;;;;;;;15.40;10.40;;;;;;;3.14;100.00;100517.69;5084424;28;20192;-82
2022/01/10 07:16:56;;;;;;;14.20;10.70;;;;;;;3.21;100.00;100531.50;5085723;28;20247;-82
2022/01/10 07:19:23;;;;;;;12.97;11.07;;;;;;;3.25;99.87;100553.91;5085071;28;20285;-83
2022/01/10 07:21:49;;;;;;;26.57;11.80;;;;;;;3.23;99.47;100565.91;5085986;28;20197;-83
2022/01/10 07:24:16;;;;;;;18.27;10.97;;;;;;;3.31;99.25;100579.78;5084567;28;20196;-81
2022/01/10 07:26:43;;;;;;;19.20;11.57;;;;;;;3.42;98.97;100588.53;5085918;28;20228;-83
2022/01/10 07:29:12;;;;;;;14.90;11.17;;;;;;;3.44;99.05;100614.38;5080408;28;20672;-83
2022/01/10 07:31:39;;;;;;;21.97;11.97;;;;;;;3.51;98.53;100619.63;5085748;28;20202;-81
2022/01/10 07:34:07;;;;;;;23.40;16.57;;;;;;;3.41;98.86;100632.38;5089083;28;20196;-81
2022/01/10 07:36:35;;;;;;;21.70;11.50;;;;;;;3.38;98.90;100638.38;5087818;28;20235;-82
2022/01/10 07:39:02;;;;;;;27.70;14.50;;;;;;;3.40;99.03;100628.06;5088913;28;20548;-81
2022/01/10 07:41:28;;;;;;;21.13;12.50;;;;;;;3.42;99.20;100621.22;5087949;28;20208;-80
2022/01/10 07:43:56;;;;;;;18.43;11.30;;;;;;;3.53;99.29;100627.41;5090692;28;20205;-81
2022/01/10 07:46:24;;;;;;;15.43;9.47;;;;;;;3.62;99.22;100635.22;5089612;28;20220;-80
2022/01/10 07:48:52;;;;;;;12.13;10.23;;;;;;;3.67;99.05;100648.22;5091377;28;20192;-81
2022/01/10 07:51:19;;;;;;;13.60;9.47;;;;;;;3.74;98.49;100665.50;5090345;28;20212;-80
2022/01/10 07:53:46;;;;;;;13.97;9.10;;;;;;;3.76;98.36;100679.28;5085837;28;20598;-82
2022/01/10 07:56:12;;;;;;;16.33;10.67;;;;;;;3.68;98.23;100676.59;5086489;28;20278;-82
2022/01/10 07:58:39;;;;;;;13.00;10.53;;;;;;;3.76;98.22;100680.16;5088426;28;20617;-82
2022/01/10 08:01:05;;;;;;;14.70;10.77;;;;;;;3.75;98.21;100693.06;5085058;28;20242;-82
2022/01/10 08:03:33;;;;;;;19.27;10.20;;;;;;;3.65;98.52;100686.03;5087756;28;20202;-82
2022/01/10 08:06:00;;;;;;;13.60;10.33;;;;;;;3.67;98.96;100684.34;5084340;28;20233;-79
2022/01/10 08:08:29;;;;;;;13.13;10.57;;;;;;;3.73;99.30;100677.53;5085716;28;20200;-79
2022/01/10 08:10:56;;;;;;;19.50;10.83;;;;;;;3.86;99.26;100681.13;5085795;28;20254;-78
2022/01/10 08:13:23;;;;;;;14.53;10.00;;;;;;;3.95;98.95;100693.31;5085624;28;20196;-78
2022/01/10 08:15:49;;;;;;;18.53;11.33;;;;;;;3.92;98.49;100704.44;5084020;28;20228;-79
2022/01/10 08:18:17;;;;;;;18.63;11.60;;;;;;;3.98;98.29;100717.47;5087454;28;20625;-79
2022/01/10 08:20:45;;;;;;;16.07;9.97;;;;;;;4.06;98.70;100724.41;5086301;28;20200;-78
2022/01/10 08:23:11;;;;;;;25.00;11.83;;;;;;;4.05;98.11;100736.47;5085158;28;20265;-78
2022/01/10 08:25:37;;;;;;;16.43;11.40;;;;;;;4.13;97.82;100744.31;5086173;28;20227;-78
2022/01/10 08:28:04;;;;;;;16.37;10.93;;;;;;;4.19;97.30;100754.72;5088400;28;20253;-80
2022/01/10 08:30:32;;;;;;;18.73;11.10;;;;;;;3.96;97.52;100781.16;5086606;28;20202;-79
2022/01/10 08:32:58;;;;;;;21.00;13.07;;;;;;;3.94;97.81;100771.63;5083907;28;20220;-81
2022/01/10 08:35:24;;;;;;;23.97;13.70;;;;;;;3.88;97.58;100772.41;5086670;28;20598;-78
2022/01/10 08:37:52;;;;;;;19.73;13.23;;;;;;;3.95;98.05;100770.78;5083612;28;20201;-78
2022/01/10 08:40:19;;;;;;;18.83;12.43;;;;;;;3.90;98.44;100772.44;5084619;28;20249;-79
2022/01/10 08:42:45;;;;;;;20.03;12.20;;;;;;;3.87;98.57;100762.94;5087842;28;20208;-79
2022/01/10 08:45:12;;;;;;;19.23;14.60;;;;;;;3.84;98.80;100764.59;5085655;28;20698;-79
2022/01/10 08:47:39;;;;;;;21.10;15.10;;;;;;;3.74;99.02;100761.03;5086481;28;20209;-79
2022/01/10 08:50:09;;;;;;;21.73;14.67;;;;;;;3.69;98.99;100753.22;5087207;28;20270;-78
2022/01/10 08:52:37;;;;;;;26.77;15.63;;;;;;;3.55;99.55;100755.59;5086020;28;20724;-80
2022/01/10 08:55:05;;;;;;;29.47;15.90;;;;;;;3.56;100.00;100741.84;5085594;28;20676;-81
2022/01/10 08:57:32;;;;;;;30.17;16.70;;;;;;;3.63;100.00;100723.84;5087275;28;20263;-79
2022/01/10 08:59:58;;;;;;;30.53;17.77;;;;;;;3.68;100.00;100724.78;5086629;28;20204;-81
2022/01/10 09:02:28;;;;;;;26.47;15.43;;;;;;;3.92;100.00;100706.16;5084884;28;20204;-81
2022/01/10 09:04:54;;;;;;;33.57;17.00;;;;;;;4.10;100.00;100708.13;5086159;28;20196;-81
2022/01/10 09:07:20;;;;;;;25.10;18.00;;;;;;;4.03;100.00;100727.84;5085318;28;20266;-83
2022/01/10 09:09:47;;;;;;;26.23;17.83;;;;;;;4.05;100.00;100746.81;5087044;28;20265;-80
2022/01/10 09:12:15;;;;;;;27.07;16.43;;;;;;;3.98;99.49;100774.28;5087339;28;20224;-80
2022/01/10 09:14:41;;;;;;;33.50;17.00;;;;;;;3.86;98.58;100793.91;5087587;28;20196;-81
2022/01/10 09:17:08;;;;;;;30.80;17.13;;;;;;;3.94;99.21;100800.03;5087106;28;20228;-80
2022/01/10 09:19:34;;;;;;;40.60;17.20;;;;;;;3.87;98.75;100806.84;5085311;28;20208;-79
2022/01/10 09:22:00;;;;;;;23.10;16.00;;;;;;;3.81;98.98;100818.81;5086502;28;20631;-79
2022/01/10 09:24:27;;;;;;;24.23;16.10;;;;;;;3.71;99.09;100817.78;5085317;28;20208;-79
2022/01/10 09:26:54;;;;;;;26.00;16.30;;;;;;;3.66;99.94;100807.38;5080331;28;20229;-79
2022/01/10 09:29:22;;;;;;;27.30;15.80;;;;;;;3.57;100.00;100794.34;5084126;28;20196;-78
2022/01/10 09:31:48;;;;;;;30.13;18.37;;;;;;;3.54;100.00;100779.66;5092619;28;20207;-78
2022/01/10 09:34:15;;;;;;;39.17;18.57;;;;;;;3.56;100.00;100765.06;5089691;28;20254;-78
2022/01/10 09:36:42;;;;;;;33.00;19.87;;;;;;;3.62;100.00;100751.38;5088285;28;20211;-79
2022/01/10 09:39:09;;;;;;;31.87;19.00;;;;;;;3.65;100.00;100750.56;5084240;28;20577;-79
2022/01/10 09:41:35;;;;;;;31.80;18.70;;;;;;;3.81;100.00;100736.19;5094457;28;20196;-78
2022/01/10 09:44:06;;;;;;;38.00;20.87;;;;;;;3.72;100.00;100745.50;5086294;28;20259;-79
2022/01/10 09:46:35;;;;;;;28.63;19.43;;;;;;;3.70;100.00;100754.94;5093267;28;20705;-79
2022/01/10 09:49:03;;;;;;;33.80;20.40;;;;;;;3.80;100.00;100758.53;5094823;28;20622;-79
2022/01/10 09:51:30;;;;;;;32.53;19.13;;;;;;;3.75;100.00;100770.53;5085985;28;20238;-77
2022/01/10 09:53:58;;;;;;;39.20;19.37;;;;;;;3.77;100.00;100768.81;5082772;28;20250;-78
2022/01/10 09:56:26;;;;;;;31.50;19.27;;;;;;;3.71;100.00;100774.75;5083219;28;20718;-78
2022/01/10 09:58:53;;;;;;;40.30;20.63;;;;;;;3.82;100.00;100771.47;5089060;28;20208;-79
2022/01/10 10:01:20;;;;;;;30.57;18.77;;;;;;;3.75;100.00;100779.13;5084152;28;20214;-79
2022/01/10 10:03:49;;;;;;;46.83;19.57;;;;;;;3.88;100.00;100777.56;5087755;28;20254;-78
2022/01/10 10:06:17;;;;;;;30.80;18.83;;;;;;;3.97;100.00;100785.44;5091277;28;20702;-79
2022/01/10 10:08:43;;;;;;;33.90;17.93;;;;;;;4.05;100.00;100803.63;5084960;28;20727;-78
2022/01/10 10:11:10;;;;;;;27.63;16.70;;;;;;;3.98;100.00;100825.94;5075881;28;20209;-78
2022/01/10 10:13:43;;;;;;;31.97;17.30;;;;;;;4.01;100.00;100832.84;5076528;28;20199;-78
2022/01/10 10:16:13;;;;;;;32.30;17.73;;;;;;;4.09;100.00;100851.06;5082115;28;20235;-78
2022/01/10 10:18:40;;;;;;;25.57;16.70;;;;;;;4.07;100.00;100858.78;5082743;28;20713;-78
2022/01/10 10:21:12;;;;;;;30.73;17.10;;;;;;;4.09;100.00;100870.00;5080442;28;20205;-78
2022/01/10 10:23:40;;;;;;;29.97;16.73;;;;;;;4.08;100.00;100877.72;5074933;28;20279;-78
2022/01/10 10:26:07;;;;;;;23.00;15.70;;;;;;;4.14;100.00;100890.72;5084378;28;20315;-78
2022/01/10 10:28:35;;;;;;;20.67;14.83;;;;;;;4.11;100.00;100904.47;5084024;28;20618;-78
2022/01/10 10:31:02;;;;;;;21.43;14.57;;;;;;;4.10;100.00;100910.50;5091184;28;20288;-78
2022/01/10 10:33:28;;;;;;;27.40;14.50;;;;;;;4.17;99.63;100916.63;5092194;28;20199;-77
2022/01/10 10:35:57;;;;;;;24.40;13.90;;;;;;;4.32;100.00;100931.47;5078342;28;20212;-78
2022/01/10 10:38:25;;;;;;;25.40;12.60;;;;;;;4.36;99.47;100939.31;5088186;28;20204;-78
2022/01/10 10:40:52;;;;;;;23.77;12.20;;;;;;;4.29;99.14;100952.97;5086937;28;20683;-77
2022/01/10 10:43:18;;;;;;;34.40;13.23;;;;;;;4.33;98.90;100962.50;5087482;28;20669;-79
2022/01/10 10:45:48;;;;;;;24.00;12.30;;;;;;;4.40;98.72;100968.66;5083101;28;20236;-80
2022/01/10 10:48:16;;;;;;;17.63;11.67;;;;;;;4.50;99.13;100965.34;5087441;28;20258;-78
2022/01/10 10:50:46;;;;;;;15.60;10.73;;;;;;;4.56;98.57;100975.78;5090164;28;20211;-79
2022/01/10 10:53:14;;;;;;;19.33;11.03;;;;;;;4.52;98.09;100994.66;5087155;28;20196;-78
2022/01/10 10:55:44;;;;;;;22.00;11.50;;;;;;;4.36;97.92;101013.34;5092986;28;20890;-78
2022/01/10 10:58:11;;;;;;;18.90;10.30;;;;;;;4.35;97.96;101016.81;5095438;28;20583;-77
2022/01/10 11:00:39;;;;;;;14.13;9.37;;;;;;;4.36;97.57;101026.28;5094537;28;20253;-78
2022/01/10 11:03:09;;;;;;;27.00;10.43;;;;;;;4.43;97.80;101015.19;5083909;28;20206;-78
2022/01/10 11:05:35;;;;;;;18.07;9.53;;;;;;;4.50;98.19;101013.56;5084599;28;20584;-78
2022/01/10 11:08:02;;;;;;;22.60;10.30;;;;;;;4.67;98.00;101003.50;5088914;28;20690;-79
2022/01/10 11:10:29;;;;;;;29.23;11.47;;;;;;;4.87;98.64;100998.59;5087091;28;20196;-78
2022/01/10 11:13:00;;;;;;;16.03;9.93;;;;;;;4.98;98.72;100987.53;5086728;28;20257;-78
2022/01/10 11:15:27;;;;;;;18.93;9.90;;;;;;;4.98;97.57;101018.56;5089379;28;20203;-79
2022/01/10 11:17:55;;;;;;;25.00;12.73;;;;;;;5.11;97.85;101029.97;5087401;28;20208;-79
2022/01/10 11:20:24;;;;;;;21.43;9.10;;;;;;;5.20;96.90;101028.34;5087048;28;20622;-79
2022/01/10 11:22:55;;;;;;;22.47;11.40;;;;;;;5.34;97.08;101048.34;5085605;28;20205;-79
2022/01/10 11:25:24;;;;;;;23.77;11.03;;;;;;;5.45;96.51;101071.81;5089809;28;20235;-79